createdAt,value
2022-10-04T00:02:31.344Z,99252.53
2022-10-04T00:05:12.426Z,99260.44
2022-10-04T00:07:51.121Z,99248.31
2022-10-04T00:10:31.459Z,99254.41
2022-10-04T00:13:25.908Z,99265.44
2022-10-04T00:15:53.472Z,99258.66
2022-10-04T00:18:39.241Z,99260.25
2022-10-04T00:21:09.891Z,99258.06
2022-10-04T00:23:36.870Z,99253.47
2022-10-04T00:26:26.005Z,99258.94
2022-10-04T00:28:55.488Z,99258.97
2022-10-04T00:31:29.255Z,99255.66
2022-10-04T00:34:18.854Z,99259.81
2022-10-04T00:36:56.017Z,99253.31
2022-10-04T00:39:42.534Z,99247.00
2022-10-04T00:42:55.949Z,99251.34
2022-10-04T00:46:01.053Z,99248.34
2022-10-04T00:48:56.534Z,99254.75
2022-10-04T00:51:38.683Z,99244.41
2022-10-04T00:54:42.384Z,99252.88
2022-10-04T00:57:28.089Z,99249.91
2022-10-04T01:00:16.787Z,99237.91
2022-10-04T01:02:46.840Z,99246.88
2022-10-04T01:05:34.185Z,99242.94
2022-10-04T01:08:25.424Z,99248.41
2022-10-04T01:11:35.111Z,99245.81
2022-10-04T01:14:23.945Z,99249.50
2022-10-04T01:16:52.441Z,99241.53
2022-10-04T01:19:22.539Z,99238.50
2022-10-04T01:22:09.775Z,99229.81
2022-10-04T01:24:44.085Z,99231.97
2022-10-04T01:27:43.699Z,99234.56
2022-10-04T01:30:17.507Z,99229.31
2022-10-04T01:32:45.611Z,99229.66
2022-10-04T01:35:15.507Z,99224.25
2022-10-04T01:37:42.832Z,99225.66
2022-10-04T01:40:11.200Z,99216.66
2022-10-04T01:42:50.195Z,99218.63
2022-10-04T01:45:50.270Z,99208.97
2022-10-04T01:48:26.187Z,99211.28
2022-10-04T01:51:27.457Z,99211.59
2022-10-04T01:54:04.974Z,99210.69
2022-10-04T01:56:57.813Z,99215.97
2022-10-04T01:59:39.920Z,99209.28
2022-10-04T02:02:41.022Z,99206.84
2022-10-04T02:05:18.916Z,99204.88
2022-10-04T02:07:48.884Z,99198.25
2022-10-04T02:10:23.143Z,99192.88
2022-10-04T02:12:54.822Z,99192.97
2022-10-04T02:15:27.620Z,99198.03
2022-10-04T02:17:57.960Z,99198.25
2022-10-04T02:20:28.219Z,99187.25
2022-10-04T02:23:03.198Z,99191.69
2022-10-04T02:25:31.021Z,99184.22
2022-10-04T02:27:58.459Z,99178.50
2022-10-04T02:30:25.836Z,99183.19
2022-10-04T02:32:58.119Z,99182.44
2022-10-04T02:35:43.130Z,99173.91
2022-10-04T02:38:13.188Z,99170.94
2022-10-04T02:40:57.152Z,99166.59
2022-10-04T02:43:56.607Z,99164.44
2022-10-04T02:46:38.734Z,99162.13
2022-10-04T02:49:32.791Z,99161.31
2022-10-04T02:52:34.316Z,99157.94
2022-10-04T02:55:31.773Z,99166.84
2022-10-04T02:58:01.957Z,99163.56
2022-10-04T03:00:32.318Z,99159.53
2022-10-04T03:03:31.748Z,99163.00
2022-10-04T03:06:14.784Z,99154.09
2022-10-04T03:09:02.224Z,99157.94
2022-10-04T03:11:40.534Z,99166.50
2022-10-04T03:14:22.170Z,99165.72
2022-10-04T03:16:57.950Z,99163.22
2022-10-04T03:19:29.844Z,99160.91
2022-10-04T03:22:07.087Z,99157.53
2022-10-04T03:24:54.228Z,99156.63
2022-10-04T03:27:30.934Z,99149.41
2022-10-04T03:29:59.599Z,99152.03
2022-10-04T03:32:30.439Z,99150.53
2022-10-04T03:35:07.794Z,99146.69
2022-10-04T03:37:38.039Z,99154.44
2022-10-04T03:40:09.903Z,99155.59
2022-10-04T03:42:38.813Z,99162.41
2022-10-04T03:45:18.750Z,99155.81
2022-10-04T03:47:50.546Z,99166.22
2022-10-04T03:50:36.971Z,99161.75
2022-10-04T03:53:25.812Z,99161.16
2022-10-04T03:55:53.421Z,99166.69
2022-10-04T03:58:22.648Z,99161.09
2022-10-04T04:01:33.778Z,99166.56
2022-10-04T04:04:35.728Z,99169.09
2022-10-04T04:07:37.892Z,99165.00
2022-10-04T04:10:23.644Z,99158.88
2022-10-04T04:13:17.149Z,99165.34
2022-10-04T04:15:45.672Z,99163.84
2022-10-04T04:18:23.170Z,99164.09
2022-10-04T04:20:56.836Z,99168.56
2022-10-04T04:23:48.717Z,99173.03
2022-10-04T04:26:50.059Z,99168.00
2022-10-04T04:29:52.025Z,99165.47
2022-10-04T04:32:33.317Z,99172.81
2022-10-04T04:35:08.478Z,99162.00
2022-10-04T04:37:38.377Z,99171.53
2022-10-04T04:40:24.489Z,99175.78
2022-10-04T04:42:52.595Z,99170.88
2022-10-04T04:45:25.927Z,99168.22
2022-10-04T04:47:58.693Z,99170.53
2022-10-04T04:50:37.801Z,99163.53
2022-10-04T04:53:23.638Z,99167.00
2022-10-04T04:56:05.086Z,99162.06
2022-10-04T04:58:46.570Z,99159.31
2022-10-04T05:01:47.594Z,99165.59
2022-10-04T05:04:19.048Z,99154.97
2022-10-04T05:07:17.043Z,99161.84
2022-10-04T05:09:44.301Z,99163.00
2022-10-04T05:12:23.174Z,99161.72
2022-10-04T05:14:54.412Z,99157.25
2022-10-04T05:17:33.681Z,99168.28
2022-10-04T05:20:02.738Z,99154.97
2022-10-04T05:22:32.737Z,99163.91
2022-10-04T05:25:10.483Z,99168.03
2022-10-04T05:27:44.652Z,99152.56
2022-10-04T05:31:24.141Z,99148.88
2022-10-04T05:33:58.641Z,99154.13
2022-10-04T05:37:06.621Z,99157.25
2022-10-04T05:40:13.327Z,99161.13
2022-10-04T05:42:49.412Z,99177.25
2022-10-04T05:45:30.708Z,99174.44
2022-10-04T05:48:01.959Z,99174.22
2022-10-04T05:50:40.701Z,99176.97
2022-10-04T05:53:33.517Z,99184.34
2022-10-04T05:56:28.164Z,99187.16
2022-10-04T05:59:37.952Z,99179.50
2022-10-04T06:02:51.859Z,99190.41
2022-10-04T06:06:05.281Z,99187.63
2022-10-04T06:09:10.388Z,99187.28
2022-10-04T06:12:20.778Z,99179.50
2022-10-04T06:15:41.329Z,99188.47
2022-10-04T06:19:06.438Z,99181.75
2022-10-04T06:22:03.179Z,99180.09
2022-10-04T06:24:39.884Z,99181.09
2022-10-04T06:27:36.822Z,99186.84
2022-10-04T06:30:19.115Z,99183.38
2022-10-04T06:33:24.608Z,99191.44
2022-10-04T06:36:34.652Z,99182.91
2022-10-04T06:40:17.384Z,99183.28
2022-10-04T06:43:20.576Z,99185.25
2022-10-04T06:46:43.132Z,99182.69
2022-10-04T06:50:01.850Z,99172.47
2022-10-04T06:53:40.164Z,99180.16
2022-10-04T06:57:03.698Z,99183.59
2022-10-04T07:00:18.838Z,99182.88
2022-10-04T07:03:13.870Z,99186.25
2022-10-04T07:06:05.051Z,99179.94
2022-10-04T07:08:52.883Z,99188.06
2022-10-04T07:11:45.854Z,99192.50
2022-10-04T07:14:35.532Z,99192.41
2022-10-04T07:17:13.299Z,99182.03
2022-10-04T07:19:49.768Z,99196.69
2022-10-04T07:22:58.270Z,99201.00
2022-10-04T07:25:36.376Z,99191.97
2022-10-04T07:28:28.561Z,99206.34
2022-10-04T07:31:00.559Z,99208.03
2022-10-04T07:33:33.858Z,99203.38
2022-10-04T07:36:46.391Z,99215.97
2022-10-04T07:39:45.979Z,99215.56
2022-10-04T07:42:53.136Z,99224.06
2022-10-04T07:45:41.678Z,99224.44
2022-10-04T07:48:23.114Z,99215.00
2022-10-04T07:51:37.085Z,99222.31
2022-10-04T07:55:05.550Z,99229.72
2022-10-04T07:58:35.452Z,99226.56
2022-10-04T08:01:33.224Z,99222.78
2022-10-04T08:04:44.417Z,99222.34
2022-10-04T08:07:54.688Z,99217.03
2022-10-04T08:10:57.405Z,99222.09
2022-10-04T08:14:04.895Z,99220.78
2022-10-04T08:17:15.386Z,99206.78
2022-10-04T08:20:22.322Z,99215.88
2022-10-04T08:23:23.995Z,99206.94
2022-10-04T08:26:34.154Z,99218.28
2022-10-04T08:29:51.828Z,99210.66
2022-10-04T08:32:50.106Z,99213.16
2022-10-04T08:35:47.844Z,99220.22
2022-10-04T08:38:52.331Z,99240.78
2022-10-04T08:42:41.811Z,99242.44
2022-10-04T08:45:58.884Z,99232.19
2022-10-04T08:49:48.957Z,99211.44
2022-10-04T08:53:42.254Z,99216.75
2022-10-04T08:57:16.021Z,99220.00
2022-10-04T09:00:59.685Z,99217.03
2022-10-04T09:04:15.915Z,99205.75
2022-10-04T09:07:45.676Z,99215.50
2022-10-04T09:10:36.705Z,99214.34
2022-10-04T09:13:36.467Z,99213.50
2022-10-04T09:17:03.847Z,99214.91
2022-10-04T09:20:51.985Z,99213.66
2022-10-04T09:25:09.486Z,99221.81
2022-10-04T09:28:40.430Z,99212.25
2022-10-04T09:32:04.977Z,99202.94
2022-10-04T09:35:47.353Z,99206.63
2022-10-04T09:39:29.546Z,99200.13
2022-10-04T09:42:26.585Z,99200.63
2022-10-04T09:45:59.456Z,99197.38
2022-10-04T09:48:53.513Z,99203.69
2022-10-04T09:52:08.968Z,99205.41
2022-10-04T09:55:30.895Z,99200.88
2022-10-04T09:58:52.838Z,99196.59
2022-10-04T10:02:04.467Z,99183.56
2022-10-04T10:05:01.148Z,99179.50
2022-10-04T10:08:09.773Z,99192.44
2022-10-04T10:11:25.803Z,99185.66
2022-10-04T10:14:38.550Z,99175.78
2022-10-04T10:17:30.181Z,99184.41
2022-10-04T10:20:35.782Z,99187.22
2022-10-04T10:23:47.881Z,99193.28
2022-10-04T10:26:53.448Z,99188.50
2022-10-04T10:29:49.512Z,99188.50
2022-10-04T10:32:39.024Z,99181.75
2022-10-04T10:36:34.992Z,99190.13
2022-10-04T10:40:03.071Z,99199.63
2022-10-04T10:44:09.081Z,99181.53
2022-10-04T10:47:42.589Z,99183.13
2022-10-04T10:51:12.761Z,99171.22
2022-10-04T10:54:56.440Z,99174.78
2022-10-04T10:57:59.536Z,99178.63
2022-10-04T11:01:25.805Z,99182.44
2022-10-04T11:05:18.460Z,99179.81
2022-10-04T11:08:37.288Z,99171.44
2022-10-04T11:12:17.437Z,99163.66
2022-10-04T11:15:44.279Z,99165.56
2022-10-04T11:18:48.156Z,99159.09
2022-10-04T11:22:54.148Z,99158.09
2022-10-04T11:26:57.031Z,99166.81
2022-10-04T11:30:26.575Z,99152.06
2022-10-04T11:33:54.225Z,99146.34
2022-10-04T11:36:56.342Z,99151.59
2022-10-04T11:40:13.012Z,99140.94
2022-10-04T11:43:55.027Z,99137.13
2022-10-04T11:47:00.843Z,99129.00
2022-10-04T11:50:32.857Z,99146.41
2022-10-04T11:53:54.750Z,99134.97
2022-10-04T11:57:09.088Z,99128.28
2022-10-04T12:00:10.617Z,99127.81
2022-10-04T12:04:18.160Z,99121.16
2022-10-04T12:07:22.799Z,99121.75
2022-10-04T12:10:20.255Z,99123.44
2022-10-04T12:12:54.217Z,99133.56
2022-10-04T12:16:37.052Z,99121.41
2022-10-04T12:20:32.362Z,99116.22
2022-10-04T12:23:47.225Z,99102.63
2022-10-04T12:27:26.399Z,99104.16
2022-10-04T12:30:31.491Z,99105.84
2022-10-04T12:33:24.631Z,99093.13
2022-10-04T12:37:13.755Z,99090.31
2022-10-04T12:39:58.452Z,99081.84
2022-10-04T12:43:10.039Z,99084.63
2022-10-04T12:46:36.938Z,99082.22
2022-10-04T12:49:32.124Z,99073.50
2022-10-04T12:52:18.516Z,99077.41
2022-10-04T12:56:07.896Z,99079.94
2022-10-04T12:58:57.463Z,99084.13
2022-10-04T13:02:16.030Z,99078.34
2022-10-04T13:05:52.310Z,99083.19
2022-10-04T13:09:11.289Z,99083.25
2022-10-04T13:13:38.544Z,99084.16
2022-10-04T13:17:33.328Z,99078.38
2022-10-04T13:20:51.901Z,99080.53
2022-10-04T13:24:08.138Z,99070.75
2022-10-04T13:27:14.064Z,99076.16
2022-10-04T13:30:23.698Z,99075.97
2022-10-04T13:33:37.883Z,99076.75
2022-10-04T13:37:20.568Z,99072.81
2022-10-04T13:40:50.734Z,99074.03
2022-10-04T13:44:08.076Z,99069.25
2022-10-04T13:47:37.994Z,99064.34
2022-10-04T13:51:07.429Z,99073.41
2022-10-04T13:54:33.941Z,99073.41
2022-10-04T13:58:01.522Z,99063.19
2022-10-04T14:01:37.406Z,99065.94
2022-10-04T14:04:16.965Z,99061.97
2022-10-04T14:07:35.305Z,99072.28
2022-10-04T14:11:16.790Z,99080.63
2022-10-04T14:14:57.884Z,99062.84
2022-10-04T14:18:17.079Z,99061.28
2022-10-04T14:21:47.425Z,99074.03
2022-10-04T14:24:36.942Z,99058.91
2022-10-04T14:28:14.331Z,99071.81
2022-10-04T14:31:46.676Z,99058.38
2022-10-04T14:35:21.900Z,99050.97
2022-10-04T14:38:38.216Z,99055.63
2022-10-04T14:42:12.540Z,99060.38
2022-10-04T14:45:47.634Z,99049.25
2022-10-04T14:49:19.783Z,99054.16
2022-10-04T14:52:37.951Z,99043.78
2022-10-04T14:55:59.428Z,99049.41
2022-10-04T14:59:15.113Z,99038.53
2022-10-04T15:02:31.246Z,99047.31
2022-10-04T15:05:39.050Z,99038.34
2022-10-04T15:08:21.480Z,99038.00
2022-10-04T15:11:08.701Z,99036.69
2022-10-04T15:13:48.008Z,99034.13
2022-10-04T15:16:52.978Z,99030.97
2022-10-04T15:19:30.384Z,99029.28
2022-10-04T15:22:31.510Z,99026.78
2022-10-04T15:24:59.483Z,99023.66
2022-10-04T15:27:50.417Z,99019.84
2022-10-04T15:31:04.842Z,99030.72
2022-10-04T15:34:05.226Z,99017.66
2022-10-04T15:37:15.322Z,99025.81
2022-10-04T15:40:56.995Z,99006.44
2022-10-04T15:44:00.872Z,99011.97
2022-10-04T15:47:12.466Z,99014.25
2022-10-04T15:50:54.024Z,99021.72
2022-10-04T15:54:10.989Z,99020.63
2022-10-04T15:56:41.111Z,99016.63
2022-10-04T15:59:49.422Z,99016.66
2022-10-04T16:03:09.983Z,99007.00
2022-10-04T16:06:23.967Z,98997.63
2022-10-04T16:09:57.942Z,99000.97
2022-10-04T16:13:20.921Z,98995.84
2022-10-04T16:16:16.934Z,98998.94
2022-10-04T16:19:11.442Z,98991.41
2022-10-04T16:21:47.499Z,98998.91
2022-10-04T16:24:20.585Z,98996.13
2022-10-04T16:26:48.316Z,98998.00
2022-10-04T16:29:43.689Z,99002.31
2022-10-04T16:32:21.646Z,99011.28
2022-10-04T16:35:10.220Z,99013.22
2022-10-04T16:38:14.442Z,99000.56
2022-10-04T16:41:13.446Z,99012.25
2022-10-04T16:43:55.437Z,99017.19
2022-10-04T16:46:44.942Z,99015.09
2022-10-04T16:49:41.750Z,99025.00
2022-10-04T16:52:48.200Z,99025.06
2022-10-04T16:55:57.088Z,99023.31
2022-10-04T16:58:27.242Z,99034.59
2022-10-04T17:02:06.732Z,99030.19
2022-10-04T17:05:33.095Z,99036.22
2022-10-04T17:09:02.892Z,99032.22
2022-10-04T17:12:29.315Z,99034.84
2022-10-04T17:15:14.471Z,99035.72
2022-10-04T17:18:26.059Z,99046.16
2022-10-04T17:21:08.326Z,99047.16
2022-10-04T17:24:20.051Z,99048.69
2022-10-04T17:27:41.071Z,99052.25
2022-10-04T17:30:27.722Z,99046.69
2022-10-04T17:33:48.272Z,99054.47
2022-10-04T17:36:37.343Z,99066.06
2022-10-04T17:39:59.029Z,99061.25
2022-10-04T17:43:05.887Z,99060.53
2022-10-04T17:46:10.729Z,99062.66
2022-10-04T17:49:34.186Z,99047.09
2022-10-04T17:52:31.665Z,99050.00
2022-10-04T17:55:31.112Z,99048.91
2022-10-04T17:58:24.224Z,99034.00
2022-10-04T18:01:08.613Z,99030.56
2022-10-04T18:03:53.597Z,99020.78
2022-10-04T18:07:17.273Z,99035.44
2022-10-04T18:10:02.537Z,99029.97
2022-10-04T18:13:12.951Z,99030.41
2022-10-04T18:16:15.348Z,99028.47
2022-10-04T18:18:45.722Z,99032.84
2022-10-04T18:21:15.828Z,99030.94
2022-10-04T18:24:16.841Z,99039.31
2022-10-04T18:27:24.302Z,99038.09
2022-10-04T18:30:18.786Z,99045.91
2022-10-04T18:32:57.489Z,99061.31
2022-10-04T18:35:33.718Z,99066.09
2022-10-04T18:38:28.209Z,99059.75
2022-10-04T18:41:20.361Z,99060.53
2022-10-04T18:44:13.539Z,99060.53
2022-10-04T18:46:46.764Z,99052.97
2022-10-04T18:49:32.919Z,99055.78
2022-10-04T18:53:24.102Z,99059.78
2022-10-04T18:56:11.957Z,99058.97
2022-10-04T19:00:00.294Z,99055.38
2022-10-04T19:03:30.205Z,99059.75
2022-10-04T19:06:32.865Z,99057.34
2022-10-04T19:09:50.934Z,99061.34
2022-10-04T19:13:17.187Z,99075.66
2022-10-04T19:16:24.926Z,99078.84
2022-10-04T19:19:20.288Z,99075.25
2022-10-04T19:22:27.577Z,99083.59
2022-10-04T19:25:39.959Z,99092.38
2022-10-04T19:28:27.141Z,99089.59
2022-10-04T19:31:26.642Z,99093.56
2022-10-04T19:34:19.147Z,99089.56
2022-10-04T19:37:50.757Z,99094.69
2022-10-04T19:40:50.302Z,99082.38
2022-10-04T19:44:06.362Z,99085.97
2022-10-04T19:47:04.482Z,99092.34
2022-10-04T19:50:06.721Z,99091.47
2022-10-04T19:52:55.798Z,99098.69
2022-10-04T19:56:06.272Z,99100.22
2022-10-04T19:59:10.933Z,99103.84
2022-10-04T20:01:38.768Z,99104.19
2022-10-04T20:04:35.899Z,99102.59
2022-10-04T20:07:24.201Z,99108.97
2022-10-04T20:10:33.727Z,99111.25
2022-10-04T20:13:30.381Z,99110.41
2022-10-04T20:15:59.808Z,99112.84
2022-10-04T20:18:33.013Z,99114.38
2022-10-04T20:21:00.261Z,99115.16
2022-10-04T20:23:39.385Z,99113.47
2022-10-04T20:26:53.377Z,99111.13
2022-10-04T20:29:39.752Z,99124.69
2022-10-04T20:32:42.065Z,99117.06
2022-10-04T20:35:54.231Z,99125.81
2022-10-04T20:38:41.425Z,99129.09
2022-10-04T20:41:28.431Z,99127.75
2022-10-04T20:44:02.568Z,99142.13
2022-10-04T20:46:38.928Z,99138.06
2022-10-04T20:49:18.686Z,99138.91
2022-10-04T20:51:50.376Z,99137.31
2022-10-04T20:54:22.544Z,99143.63
2022-10-04T20:56:51.506Z,99142.78
2022-10-04T20:59:19.071Z,99137.25
2022-10-04T21:02:12.165Z,99139.44
2022-10-04T21:04:44.302Z,99141.81
2022-10-04T21:07:21.425Z,99149.81
2022-10-04T21:09:50.136Z,99149.75
2022-10-04T21:12:35.138Z,99163.97
2022-10-04T21:15:20.260Z,99169.63
2022-10-04T21:18:10.879Z,99172.66
2022-10-04T21:20:56.269Z,99173.13
2022-10-04T21:23:34.237Z,99162.25
2022-10-04T21:26:25.055Z,99165.25
2022-10-04T21:28:58.510Z,99170.16
2022-10-04T21:31:26.298Z,99163.22
2022-10-04T21:33:53.740Z,99165.44
2022-10-04T21:36:21.206Z,99164.44
2022-10-04T21:38:48.542Z,99164.63
2022-10-04T21:41:15.812Z,99166.72
2022-10-04T21:43:43.080Z,99161.44
2022-10-04T21:46:16.458Z,99165.91
2022-10-04T21:48:46.739Z,99171.19
2022-10-04T21:51:14.032Z,99172.81
2022-10-04T21:53:41.305Z,99175.03
2022-10-04T21:56:08.710Z,99177.53
2022-10-04T21:58:35.962Z,99172.78
2022-10-04T22:01:03.534Z,99173.13
2022-10-04T22:03:30.840Z,99162.66
2022-10-04T22:05:58.126Z,99174.22
2022-10-04T22:08:25.388Z,99171.44
2022-10-04T22:10:57.445Z,99176.00
2022-10-04T22:13:26.714Z,99169.84
2022-10-04T22:15:55.915Z,99176.31
2022-10-04T22:18:23.436Z,99172.22
2022-10-04T22:20:50.695Z,99179.16
2022-10-04T22:23:27.353Z,99164.50
2022-10-04T22:25:56.360Z,99165.91
2022-10-04T22:28:30.810Z,99166.28
2022-10-04T22:30:58.724Z,99169.06
2022-10-04T22:33:36.041Z,99184.50
2022-10-04T22:36:36.613Z,99170.63
2022-10-04T22:39:10.063Z,99167.38
2022-10-04T22:41:57.603Z,99167.66
2022-10-04T22:44:45.725Z,99174.53
2022-10-04T22:47:17.049Z,99168.53
2022-10-04T22:49:50.174Z,99169.31
2022-10-04T22:52:24.106Z,99171.19
2022-10-04T22:54:55.632Z,99163.66
2022-10-04T22:57:25.795Z,99145.66
2022-10-04T22:59:54.010Z,99168.63
2022-10-04T23:02:29.263Z,99159.44
2022-10-04T23:05:21.924Z,99168.84
2022-10-04T23:07:49.522Z,99155.66
2022-10-04T23:10:20.019Z,99168.84
2022-10-04T23:12:49.473Z,99174.06
2022-10-04T23:15:20.745Z,99168.56
2022-10-04T23:17:57.796Z,99172.66
2022-10-04T23:20:25.055Z,99175.06
2022-10-04T23:22:54.480Z,99177.38
2022-10-04T23:25:30.833Z,99180.06
2022-10-04T23:28:17.011Z,99166.53
2022-10-04T23:30:50.591Z,99179.19
2022-10-04T23:33:23.761Z,99180.44
2022-10-04T23:35:53.559Z,99175.19
2022-10-04T23:38:24.770Z,99174.53
2022-10-04T23:40:52.097Z,99168.22
2022-10-04T23:43:25.157Z,99175.31
2022-10-04T23:45:58.604Z,99175.59
2022-10-04T23:48:31.933Z,99176.16
2022-10-04T23:51:00.867Z,99175.34
2022-10-04T23:53:33.857Z,99177.09
2022-10-04T23:56:18.381Z,99173.13
2022-10-04T23:58:46.959Z,99171.84
